Česky Dansk Deutsch English Español Suomi Français Magyar Italiano Nederlands norsk Polski Português svenska Türkçe

 

Het Weer

Atar (Mauritania)

15:00, 12 juli 2016 (GMT)

 
WE
 
Home            
Atar Akjoujt Tidjikja Boutilimit Nouakchott Nouadhibou Villa Cisneros Kiffa Podor Kaedi Rosso Matam Bir Moghrein Aioun El Atrouss Linguere Saint-Louis Kayes Nioro Du Sahel Diourbel Laayoune/Hassan Isl Nema Tambacounda Kaolack

Om een weerknop op uw website of weblog te plaatsen, copieer onderstaande code en plak die in uw pagina. In het eerste vakje staat HTML-code, in het tweede vakje UBB-code.


Add to Google

Details

Wind speed:3 bf, 8 kn, 4.1 m/s, 9.2 miles/h, 14.8 km/h
Wind direction:SW, 220°
Visibility: 8000 m, 8.0 km, 26247 ft, 5.0 miles
Temperature:42°C, 108°F
Gefühlte Temperatur:40°C, 104°F
Dew-point:8°C, 46°F
Atmospheric pressure:1008 hPa, 756.1 mmHg, 29.77 inHg, 0.995 atm
Relative humidity:13.1 %
METAR:GQPA 121500Z 22008KT 8000 NSC 42/08 Q1008

Snelkoppelingen

Actuele weersinformatie van de hele wereld. Voeg locaties toe met het plus (+) symbool. Deze snelkoppelingen kunnen worden toegevoegd aan Google.

Lid van de Technetium groep

website free tracking
StatCounter NetStat W3C Validator

27-01-2022 06:08:32
astro.technetium.be money.technetium.be phote.technetium.be tafeltennistafel.technetium.be www.ligfiets.net